sensor_id;sensor_type;location;lat;lon;timestamp;pressure;altitude;pressure_sealevel;temperature;humidity
10474;BME280;5284;50.446;7.904;2022-12-08T00:01:37;97919.31;;;2.77;100.00
10474;BME280;5284;50.446;7.904;2022-12-08T00:06:42;97920.06;;;2.79;100.00
10474;BME280;5284;50.446;7.904;2022-12-08T00:12:05;97910.34;;;2.80;100.00
10474;BME280;5284;50.446;7.904;2022-12-08T00:17:11;97909.53;;;2.79;100.00
10474;BME280;5284;50.446;7.904;2022-12-08T00:22:14;97902.56;;;2.78;100.00
10474;BME280;5284;50.446;7.904;2022-12-08T00:27:17;97902.88;;;2.74;100.00
10474;BME280;5284;50.446;7.904;2022-12-08T00:32:22;97896.66;;;2.75;100.00
10474;BME280;5284;50.446;7.904;2022-12-08T00:37:25;97882.56;;;2.76;100.00
10474;BME280;5284;50.446;7.904;2022-12-08T00:42:28;97880.88;;;2.75;100.00
10474;BME280;5284;50.446;7.904;2022-12-08T00:47:32;97879.84;;;2.77;100.00
10474;BME280;5284;50.446;7.904;2022-12-08T00:52:35;97875.59;;;2.75;100.00
10474;BME280;5284;50.446;7.904;2022-12-08T00:57:38;97870.13;;;2.78;100.00
10474;BME280;5284;50.446;7.904;2022-12-08T01:02:42;97863.31;;;2.75;100.00
10474;BME280;5284;50.446;7.904;2022-12-08T01:07:45;97867.72;;;2.75;100.00
10474;BME280;5284;50.446;7.904;2022-12-08T01:12:49;97863.47;;;2.72;100.00
10474;BME280;5284;50.446;7.904;2022-12-08T01:17:53;97860.84;;;2.72;100.00
10474;BME280;5284;50.446;7.904;2022-12-08T01:22:56;97865.28;;;2.72;100.00
10474;BME280;5284;50.446;7.904;2022-12-08T01:27:59;97863.88;;;2.66;100.00
10474;BME280;5284;50.446;7.904;2022-12-08T01:33:03;97862.84;;;2.69;100.00
10474;BME280;5284;50.446;7.904;2022-12-08T01:38:05;97864.63;;;2.68;100.00
10474;BME280;5284;50.446;7.904;2022-12-08T01:43:11;97865.34;;;2.70;100.00
10474;BME280;5284;50.446;7.904;2022-12-08T01:48:20;97863.78;;;2.68;100.00
10474;BME280;5284;50.446;7.904;2022-12-08T01:53:26;97859.34;;;2.68;100.00
10474;BME280;5284;50.446;7.904;2022-12-08T01:58:33;97856.72;;;2.68;100.00
10474;BME280;5284;50.446;7.904;2022-12-08T02:03:41;97850.50;;;2.69;100.00
10474;BME280;5284;50.446;7.904;2022-12-08T02:08:46;97845.66;;;2.63;100.00
10474;BME280;5284;50.446;7.904;2022-12-08T02:13:51;97841.13;;;2.65;100.00
10474;BME280;5284;50.446;7.904;2022-12-08T02:19:06;97835.88;;;2.65;100.00
10474;BME280;5284;50.446;7.904;2022-12-08T02:24:36;97840.38;;;2.63;100.00
10474;BME280;5284;50.446;7.904;2022-12-08T02:30:12;97829.78;;;2.65;100.00
10474;BME280;5284;50.446;7.904;2022-12-08T02:35:22;97824.50;;;2.65;100.00
10474;BME280;5284;50.446;7.904;2022-12-08T02:40:33;97817.44;;;2.65;100.00
10474;BME280;5284;50.446;7.904;2022-12-08T02:45:40;97817.44;;;2.65;100.00
10474;BME280;5284;50.446;7.904;2022-12-08T02:50:47;97810.41;;;2.66;100.00
10474;BME280;5284;50.446;7.904;2022-12-08T02:55:55;97805.03;;;2.67;100.00
10474;BME280;5284;50.446;7.904;2022-12-08T03:01:14;97805.97;;;2.66;100.00
10474;BME280;5284;50.446;7.904;2022-12-08T03:06:28;97793.75;;;2.65;100.00
10474;BME280;5284;50.446;7.904;2022-12-08T03:11:38;97793.69;;;2.67;100.00
10474;BME280;5284;50.446;7.904;2022-12-08T03:16:46;97784.94;;;2.66;100.00
10474;BME280;5284;50.446;7.904;2022-12-08T03:21:53;97787.25;;;2.71;100.00
10474;BME280;5284;50.446;7.904;2022-12-08T03:27:06;97778.63;;;2.69;100.00
10474;BME280;5284;50.446;7.904;2022-12-08T03:32:13;97768.19;;;2.67;100.00
10474;BME280;5284;50.446;7.904;2022-12-08T03:37:21;97755.03;;;2.67;100.00
10474;BME280;5284;50.446;7.904;2022-12-08T03:42:24;97757.78;;;2.66;100.00
10474;BME280;5284;50.446;7.904;2022-12-08T03:47:27;97747.03;;;2.69;100.00
10474;BME280;5284;50.446;7.904;2022-12-08T03:52:31;97752.53;;;2.66;100.00
10474;BME280;5284;50.446;7.904;2022-12-08T03:57:33;97743.69;;;2.67;100.00
10474;BME280;5284;50.446;7.904;2022-12-08T04:02:36;97733.16;;;2.67;100.00
10474;BME280;5284;50.446;7.904;2022-12-08T04:07:40;97727.97;;;2.65;100.00
10474;BME280;5284;50.446;7.904;2022-12-08T04:12:44;97719.13;;;2.66;100.00
10474;BME280;5284;50.446;7.904;2022-12-08T04:17:46;97718.31;;;2.66;100.00
10474;BME280;5284;50.446;7.904;2022-12-08T04:22:51;97710.28;;;2.67;100.00
10474;BME280;5284;50.446;7.904;2022-12-08T04:27:54;97704.94;;;2.69;100.00
10474;BME280;5284;50.446;7.904;2022-12-08T04:32:57;97699.78;;;2.67;100.00
10474;BME280;5284;50.446;7.904;2022-12-08T04:38:01;97698.00;;;2.68;100.00
10474;BME280;5284;50.446;7.904;2022-12-08T04:43:04;97699.88;;;2.66;100.00
10474;BME280;5284;50.446;7.904;2022-12-08T04:48:07;97697.88;;;2.69;100.00
10474;BME280;5284;50.446;7.904;2022-12-08T04:53:12;97700.50;;;2.69;100.00
10474;BME280;5284;50.446;7.904;2022-12-08T04:58:16;97697.13;;;2.67;100.00
10474;BME280;5284;50.446;7.904;2022-12-08T05:03:19;97689.97;;;2.69;100.00
10474;BME280;5284;50.446;7.904;2022-12-08T05:08:31;97678.72;;;2.67;100.00
10474;BME280;5284;50.446;7.904;2022-12-08T05:13:33;97683.16;;;2.67;100.00
10474;BME280;5284;50.446;7.904;2022-12-08T05:18:37;97679.56;;;2.68;100.00
10474;BME280;5284;50.446;7.904;2022-12-08T05:23:41;97682.09;;;2.69;100.00
10474;BME280;5284;50.446;7.904;2022-12-08T05:28:45;97679.38;;;2.71;100.00
10474;BME280;5284;50.446;7.904;2022-12-08T05:33:49;97679.25;;;2.72;100.00
10474;BME280;5284;50.446;7.904;2022-12-08T05:38:55;97675.88;;;2.70;100.00
10474;BME280;5284;50.446;7.904;2022-12-08T05:43:58;97670.59;;;2.70;100.00
10474;BME280;5284;50.446;7.904;2022-12-08T05:49:02;97672.28;;;2.71;100.00
10474;BME280;5284;50.446;7.904;2022-12-08T05:54:06;97669.78;;;2.70;100.00
10474;BME280;5284;50.446;7.904;2022-12-08T05:59:09;97673.97;;;2.72;100.00
10474;BME280;5284;50.446;7.904;2022-12-08T06:04:12;97667.88;;;2.72;100.00
10474;BME280;5284;50.446;7.904;2022-12-08T06:09:16;97665.16;;;2.73;100.00
10474;BME280;5284;50.446;7.904;2022-12-08T06:14:19;97662.63;;;2.72;100.00
10474;BME280;5284;50.446;7.904;2022-12-08T06:19:21;97658.53;;;2.68;100.00
10474;BME280;5284;50.446;7.904;2022-12-08T06:24:26;97654.94;;;2.69;100.00
10474;BME280;5284;50.446;7.904;2022-12-08T06:29:29;97655.75;;;2.69;100.00
10474;BME280;5284;50.446;7.904;2022-12-08T06:34:31;97661.97;;;2.68;100.00
10474;BME280;5284;50.446;7.904;2022-12-08T06:39:36;97657.66;;;2.67;100.00
10474;BME280;5284;50.446;7.904;2022-12-08T06:44:39;97661.97;;;2.68;100.00
10474;BME280;5284;50.446;7.904;2022-12-08T06:49:42;97658.41;;;2.69;100.00
10474;BME280;5284;50.446;7.904;2022-12-08T06:54:46;97652.19;;;2.70;100.00
10474;BME280;5284;50.446;7.904;2022-12-08T06:59:48;97657.38;;;2.72;100.00
10474;BME280;5284;50.446;7.904;2022-12-08T07:04:51;97658.09;;;2.74;100.00
10474;BME280;5284;50.446;7.904;2022-12-08T07:09:55;97658.00;;;2.75;100.00
10474;BME280;5284;50.446;7.904;2022-12-08T07:14:59;97665.91;;;2.75;100.00
10474;BME280;5284;50.446;7.904;2022-12-08T07:20:02;97659.69;;;2.76;100.00
10474;BME280;5284;50.446;7.904;2022-12-08T07:25:08;97666.09;;;2.72;100.00
10474;BME280;5284;50.446;7.904;2022-12-08T07:30:12;97669.56;;;2.73;100.00
10474;BME280;5284;50.446;7.904;2022-12-08T07:35:16;97671.25;;;2.74;100.00
10474;BME280;5284;50.446;7.904;2022-12-08T07:40:20;97661.25;;;2.79;100.00
10474;BME280;5284;50.446;7.904;2022-12-08T07:45:23;97655.91;;;2.80;100.00
10474;BME280;5284;50.446;7.904;2022-12-08T07:50:32;97657.38;;;2.84;100.00
10474;BME280;5284;50.446;7.904;2022-12-08T07:55:39;97658.84;;;2.88;100.00
10474;BME280;5284;50.446;7.904;2022-12-08T08:00:42;97664.00;;;2.90;100.00
10474;BME280;5284;50.446;7.904;2022-12-08T08:05:44;97660.53;;;2.89;100.00
10474;BME280;5284;50.446;7.904;2022-12-08T08:10:51;97664.84;;;2.90;100.00
10474;BME280;5284;50.446;7.904;2022-12-08T08:16:01;97663.06;;;2.91;100.00
10474;BME280;5284;50.446;7.904;2022-12-08T08:21:05;97662.00;;;2.93;100.00
10474;BME280;5284;50.446;7.904;2022-12-08T08:26:29;97669.69;;;2.96;100.00
10474;BME280;5284;50.446;7.904;2022-12-08T08:31:32;97664.31;;;2.97;100.00
10474;BME280;5284;50.446;7.904;2022-12-08T08:36:35;97665.06;;;2.99;100.00
10474;BME280;5284;50.446;7.904;2022-12-08T08:41:39;97655.88;;;3.05;100.00
10474;BME280;5284;50.446;7.904;2022-12-08T08:46:42;97661.03;;;3.06;100.00
10474;BME280;5284;50.446;7.904;2022-12-08T08:51:45;97668.28;;;3.15;100.00
10474;BME280;5284;50.446;7.904;2022-12-08T08:56:50;97660.09;;;3.20;100.00
10474;BME280;5284;50.446;7.904;2022-12-08T09:01:53;97653.75;;;3.22;100.00
10474;BME280;5284;50.446;7.904;2022-12-08T09:06:56;97653.56;;;3.25;100.00
10474;BME280;5284;50.446;7.904;2022-12-08T09:12:01;97654.38;;;3.26;100.00
10474;BME280;5284;50.446;7.904;2022-12-08T09:17:05;97652.16;;;3.32;100.00
10474;BME280;5284;50.446;7.904;2022-12-08T09:22:08;97653.47;;;3.50;100.00
10474;BME280;5284;50.446;7.904;2022-12-08T09:27:13;97649.53;;;3.45;100.00
10474;BME280;5284;50.446;7.904;2022-12-08T09:32:16;97660.22;;;3.54;100.00
10474;BME280;5284;50.446;7.904;2022-12-08T09:37:19;97664.22;;;3.60;100.00
10474;BME280;5284;50.446;7.904;2022-12-08T09:42:29;97663.03;;;3.64;100.00
10474;BME280;5284;50.446;7.904;2022-12-08T09:47:39;97662.00;;;3.66;100.00
10474;BME280;5284;50.446;7.904;2022-12-08T09:52:46;97665.56;;;3.78;100.00
10474;BME280;5284;50.446;7.904;2022-12-08T09:57:59;97656.63;;;3.91;100.00
10474;BME280;5284;50.446;7.904;2022-12-08T10:03:06;97651.00;;;3.96;100.00
10474;BME280;5284;50.446;7.904;2022-12-08T10:08:19;97647.44;;;3.97;100.00
10474;BME280;5284;50.446;7.904;2022-12-08T10:13:32;97649.78;;;3.89;100.00
10474;BME280;5284;50.446;7.904;2022-12-08T10:18:37;97641.88;;;3.89;100.00
10474;BME280;5284;50.446;7.904;2022-12-08T10:23:41;97635.41;;;3.93;100.00
10474;BME280;5284;50.446;7.904;2022-12-08T10:28:47;97628.69;;;4.12;100.00
10474;BME280;5284;50.446;7.904;2022-12-08T10:33:54;97619.25;;;4.21;100.00
10474;BME280;5284;50.446;7.904;2022-12-08T10:39:00;97615.16;;;4.17;100.00
10474;BME280;5284;50.446;7.904;2022-12-08T10:44:04;97615.16;;;4.17;100.00
10474;BME280;5284;50.446;7.904;2022-12-08T10:49:10;97613.75;;;4.35;100.00
10474;BME280;5284;50.446;7.904;2022-12-08T10:54:25;97600.50;;;4.58;100.00
10474;BME280;5284;50.446;7.904;2022-12-08T10:59:32;97601.59;;;4.55;100.00
10474;BME280;5284;50.446;7.904;2022-12-08T11:04:36;97601.50;;;4.68;100.00
10474;BME280;5284;50.446;7.904;2022-12-08T11:09:41;97598.16;;;4.88;100.00
10474;BME280;5284;50.446;7.904;2022-12-08T11:14:54;97592.38;;;4.83;100.00
10474;BME280;5284;50.446;7.904;2022-12-08T11:20:02;97593.34;;;4.71;100.00
10474;BME280;5284;50.446;7.904;2022-12-08T11:25:09;97587.44;;;4.56;100.00
10474;BME280;5284;50.446;7.904;2022-12-08T11:30:18;97589.28;;;4.22;100.00
10474;BME280;5284;50.446;7.904;2022-12-08T11:35:24;97582.81;;;4.26;100.00
10474;BME280;5284;50.446;7.904;2022-12-08T11:40:31;97575.38;;;4.31;100.00
10474;BME280;5284;50.446;7.904;2022-12-08T11:45:38;97573.28;;;4.47;100.00
10474;BME280;5284;50.446;7.904;2022-12-08T11:50:47;97570.91;;;4.76;100.00
10474;BME280;5284;50.446;7.904;2022-12-08T11:55:55;97573.06;;;4.71;100.00
10474;BME280;5284;50.446;7.904;2022-12-08T12:01:00;97568.34;;;4.53;100.00
10474;BME280;5284;50.446;7.904;2022-12-08T12:12:05;97560.66;;;4.50;100.00
10474;BME280;5284;50.446;7.904;2022-12-08T12:17:32;97565.13;;;4.49;100.00
10474;BME280;5284;50.446;7.904;2022-12-08T12:22:45;97558.41;;;4.56;100.00
10474;BME280;5284;50.446;7.904;2022-12-08T12:27:50;97555.75;;;4.56;100.00
10474;BME280;5284;50.446;7.904;2022-12-08T12:33:00;97552.66;;;4.51;100.00
10474;BME280;5284;50.446;7.904;2022-12-08T12:38:05;97552.50;;;4.53;100.00
10474;BME280;5284;50.446;7.904;2022-12-08T12:43:31;97536.91;;;4.50;100.00
10474;BME280;5284;50.446;7.904;2022-12-08T12:48:36;97538.50;;;4.52;100.00
10474;BME280;5284;50.446;7.904;2022-12-08T12:53:48;97526.59;;;4.58;100.00
10474;BME280;5284;50.446;7.904;2022-12-08T12:58:52;97527.94;;;4.63;100.00
10474;BME280;5284;50.446;7.904;2022-12-08T13:04:04;97521.31;;;4.58;100.00
10474;BME280;5284;50.446;7.904;2022-12-08T13:09:19;97516.91;;;4.80;100.00
10474;BME280;5284;50.446;7.904;2022-12-08T13:14:27;97521.22;;;4.92;100.00
10474;BME280;5284;50.446;7.904;2022-12-08T13:19:32;97517.63;;;4.82;100.00
10474;BME280;5284;50.446;7.904;2022-12-08T13:24:37;97511.84;;;4.66;100.00
10474;BME280;5284;50.446;7.904;2022-12-08T13:29:40;97521.22;;;4.59;100.00
10474;BME280;5284;50.446;7.904;2022-12-08T13:34:48;97510.41;;;4.51;100.00
10474;BME280;5284;50.446;7.904;2022-12-08T13:39:56;97514.25;;;4.47;100.00
10474;BME280;5284;50.446;7.904;2022-12-08T13:45:03;97504.63;;;4.36;100.00
10474;BME280;5284;50.446;7.904;2022-12-08T13:50:33;97510.03;;;4.34;100.00
10474;BME280;5284;50.446;7.904;2022-12-08T13:55:58;97504.50;;;4.26;100.00
10474;BME280;5284;50.446;7.904;2022-12-08T14:01:23;97504.84;;;4.22;100.00
10474;BME280;5284;50.446;7.904;2022-12-08T14:06:29;97505.78;;;4.10;100.00
10474;BME280;5284;50.446;7.904;2022-12-08T14:11:35;97511.03;;;3.99;100.00
10474;BME280;5284;50.446;7.904;2022-12-08T14:16:40;97503.84;;;4.01;100.00
10474;BME280;5284;50.446;7.904;2022-12-08T14:21:51;97507.06;;;3.93;100.00
10474;BME280;5284;50.446;7.904;2022-12-08T14:26:57;97510.50;;;3.83;100.00
10474;BME280;5284;50.446;7.904;2022-12-08T14:32:00;97508.19;;;3.78;100.00
10474;BME280;5284;50.446;7.904;2022-12-08T14:37:09;97510.13;;;3.76;100.00
10474;BME280;5284;50.446;7.904;2022-12-08T14:42:21;97508.53;;;3.74;100.00
10474;BME280;5284;50.446;7.904;2022-12-08T14:47:28;97525.03;;;3.65;100.00
10474;BME280;5284;50.446;7.904;2022-12-08T14:52:33;97517.19;;;3.52;100.00
10474;BME280;5284;50.446;7.904;2022-12-08T14:57:36;97516.69;;;3.47;100.00
10474;BME280;5284;50.446;7.904;2022-12-08T15:02:43;97517.25;;;3.40;100.00
10474;BME280;5284;50.446;7.904;2022-12-08T15:07:50;97513.28;;;3.34;100.00
10474;BME280;5284;50.446;7.904;2022-12-08T15:12:59;97519.94;;;3.27;100.00
10474;BME280;5284;50.446;7.904;2022-12-08T15:18:11;97534.06;;;3.26;100.00
10474;BME280;5284;50.446;7.904;2022-12-08T15:23:35;97524.69;;;3.22;100.00
10474;BME280;5284;50.446;7.904;2022-12-08T15:28:42;97529.44;;;3.17;100.00
10474;BME280;5284;50.446;7.904;2022-12-08T15:33:45;97522.63;;;3.15;100.00
10474;BME280;5284;50.446;7.904;2022-12-08T15:38:49;97522.13;;;3.10;100.00
10474;BME280;5284;50.446;7.904;2022-12-08T15:43:51;97518.84;;;3.06;100.00
10474;BME280;5284;50.446;7.904;2022-12-08T15:48:54;97518.22;;;3.03;100.00
10474;BME280;5284;50.446;7.904;2022-12-08T15:54:00;97515.72;;;3.01;100.00
10474;BME280;5284;50.446;7.904;2022-12-08T15:59:04;97522.25;;;2.96;100.00
10474;BME280;5284;50.446;7.904;2022-12-08T16:04:07;97521.41;;;2.96;100.00
10474;BME280;5284;50.446;7.904;2022-12-08T16:09:33;97527.50;;;2.96;100.00
10474;BME280;5284;50.446;7.904;2022-12-08T16:14:42;97518.88;;;2.94;100.00
10474;BME280;5284;50.446;7.904;2022-12-08T16:20:09;97509.63;;;2.89;100.00
10474;BME280;5284;50.446;7.904;2022-12-08T16:25:15;97507.13;;;2.87;100.00
10474;BME280;5284;50.446;7.904;2022-12-08T16:30:20;97505.44;;;2.86;100.00
10474;BME280;5284;50.446;7.904;2022-12-08T16:35:23;97513.66;;;2.82;100.00
10474;BME280;5284;50.446;7.904;2022-12-08T16:40:28;97514.59;;;2.81;100.00
10474;BME280;5284;50.446;7.904;2022-12-08T16:45:31;97519.75;;;2.82;100.00
10474;BME280;5284;50.446;7.904;2022-12-08T16:50:45;97517.97;;;2.83;100.00
10474;BME280;5284;50.446;7.904;2022-12-08T16:55:49;97519.03;;;2.80;100.00
10474;BME280;5284;50.446;7.904;2022-12-08T17:00:52;97524.31;;;2.80;100.00
10474;BME280;5284;50.446;7.904;2022-12-08T17:05:55;97522.50;;;2.81;100.00
10474;BME280;5284;50.446;7.904;2022-12-08T17:10:59;97517.34;;;2.79;100.00
10474;BME280;5284;50.446;7.904;2022-12-08T17:16:11;97514.22;;;2.74;100.00
10474;BME280;5284;50.446;7.904;2022-12-08T17:21:16;97504.50;;;2.75;100.00
10474;BME280;5284;50.446;7.904;2022-12-08T17:26:20;97508.31;;;2.71;100.00
10474;BME280;5284;50.446;7.904;2022-12-08T17:31:23;97503.34;;;2.66;100.00
10474;BME280;5284;50.446;7.904;2022-12-08T17:36:31;97507.88;;;2.64;100.00
10474;BME280;5284;50.446;7.904;2022-12-08T17:41:35;97501.28;;;2.59;100.00
10474;BME280;5284;50.446;7.904;2022-12-08T17:46:38;97505.28;;;2.52;100.00
10474;BME280;5284;50.446;7.904;2022-12-08T17:51:46;97508.97;;;2.49;100.00
10474;BME280;5284;50.446;7.904;2022-12-08T17:56:51;97515.28;;;2.47;100.00
10474;BME280;5284;50.446;7.904;2022-12-08T18:01:55;97505.19;;;2.41;100.00
10474;BME280;5284;50.446;7.904;2022-12-08T18:06:58;97510.66;;;2.38;100.00
10474;BME280;5284;50.446;7.904;2022-12-08T18:12:03;97508.25;;;2.35;100.00
10474;BME280;5284;50.446;7.904;2022-12-08T18:17:06;97510.13;;;2.33;100.00
10474;BME280;5284;50.446;7.904;2022-12-08T18:22:09;97503.41;;;2.29;100.00
10474;BME280;5284;50.446;7.904;2022-12-08T18:27:14;97503.94;;;2.21;100.00
10474;BME280;5284;50.446;7.904;2022-12-08T18:32:17;97505.81;;;2.19;100.00
10474;BME280;5284;50.446;7.904;2022-12-08T18:37:24;97510.44;;;2.16;100.00
10474;BME280;5284;50.446;7.904;2022-12-08T18:42:28;97497.19;;;2.17;100.00
10474;BME280;5284;50.446;7.904;2022-12-08T18:47:32;97502.56;;;2.16;100.00
10474;BME280;5284;50.446;7.904;2022-12-08T18:52:35;97499.19;;;2.14;100.00
10474;BME280;5284;50.446;7.904;2022-12-08T18:57:41;97505.38;;;2.13;100.00
10474;BME280;5284;50.446;7.904;2022-12-08T19:02:44;97498.97;;;2.17;100.00
10474;BME280;5284;50.446;7.904;2022-12-08T19:07:47;97500.78;;;2.16;100.00
10474;BME280;5284;50.446;7.904;2022-12-08T19:12:51;97503.41;;;2.16;100.00
10474;BME280;5284;50.446;7.904;2022-12-08T19:17:55;97504.34;;;2.15;100.00
10474;BME280;5284;50.446;7.904;2022-12-08T19:22:58;97502.75;;;2.13;100.00
10474;BME280;5284;50.446;7.904;2022-12-08T19:28:02;97504.56;;;2.12;100.00
10474;BME280;5284;50.446;7.904;2022-12-08T19:33:05;97510.03;;;2.09;100.00
10474;BME280;5284;50.446;7.904;2022-12-08T19:38:08;97508.22;;;2.10;100.00
10474;BME280;5284;50.446;7.904;2022-12-08T19:43:15;97510.25;;;2.06;100.00
10474;BME280;5284;50.446;7.904;2022-12-08T19:48:36;97521.72;;;2.05;100.00
10474;BME280;5284;50.446;7.904;2022-12-08T19:53:38;97508.56;;;2.05;100.00
10474;BME280;5284;50.446;7.904;2022-12-08T19:58:50;97511.28;;;2.04;100.00
10474;BME280;5284;50.446;7.904;2022-12-08T20:03:52;97509.69;;;2.01;100.00
10474;BME280;5284;50.446;7.904;2022-12-08T20:08:55;97514.13;;;2.01;100.00
10474;BME280;5284;50.446;7.904;2022-12-08T20:13:59;97517.47;;;2.03;100.00
10474;BME280;5284;50.446;7.904;2022-12-08T20:19:02;97515.91;;;2.00;100.00
10474;BME280;5284;50.446;7.904;2022-12-08T20:24:06;97514.00;;;2.02;100.00
10474;BME280;5284;50.446;7.904;2022-12-08T20:29:10;97508.22;;;1.97;100.00
10474;BME280;5284;50.446;7.904;2022-12-08T20:34:18;97504.56;;;2.00;100.00
10474;BME280;5284;50.446;7.904;2022-12-08T20:39:21;97499.31;;;2.00;100.00
10474;BME280;5284;50.446;7.904;2022-12-08T20:44:25;97498.44;;;1.99;100.00
10474;BME280;5284;50.446;7.904;2022-12-08T20:49:29;97500.53;;;1.94;100.00
10474;BME280;5284;50.446;7.904;2022-12-08T20:54:36;97505.19;;;1.91;100.00
10474;BME280;5284;50.446;7.904;2022-12-08T20:59:40;97506.13;;;1.90;100.00
10474;BME280;5284;50.446;7.904;2022-12-08T21:04:43;97507.91;;;1.89;100.00
10474;BME280;5284;50.446;7.904;2022-12-08T21:09:46;97502.66;;;1.89;100.00
10474;BME280;5284;50.446;7.904;2022-12-08T21:14:50;97500.97;;;1.88;100.00
10474;BME280;5284;50.446;7.904;2022-12-08T21:19:53;97510.66;;;1.88;100.00
10474;BME280;5284;50.446;7.904;2022-12-08T21:24:56;97503.69;;;1.87;100.00
10474;BME280;5284;50.446;7.904;2022-12-08T21:30:00;97504.63;;;1.86;100.00
10474;BME280;5284;50.446;7.904;2022-12-08T21:35:05;97502.94;;;1.85;100.00
10474;BME280;5284;50.446;7.904;2022-12-08T21:40:08;97510.94;;;1.83;100.00
10474;BME280;5284;50.446;7.904;2022-12-08T21:45:15;97520.59;;;1.83;100.00
10474;BME280;5284;50.446;7.904;2022-12-08T21:50:19;97503.47;;;1.77;100.00
10474;BME280;5284;50.446;7.904;2022-12-08T21:55:22;97508.63;;;1.79;100.00
10474;BME280;5284;50.446;7.904;2022-12-08T22:00:26;97513.66;;;1.82;100.00
10474;BME280;5284;50.446;7.904;2022-12-08T22:05:29;97514.72;;;1.79;100.00
10474;BME280;5284;50.446;7.904;2022-12-08T22:10:32;97514.81;;;1.78;100.00
10474;BME280;5284;50.446;7.904;2022-12-08T22:15:37;97519.03;;;1.80;100.00
10474;BME280;5284;50.446;7.904;2022-12-08T22:20:40;97517.34;;;1.79;100.00
10474;BME280;5284;50.446;7.904;2022-12-08T22:25:54;97511.25;;;1.79;100.00
10474;BME280;5284;50.446;7.904;2022-12-08T22:30:58;97516.50;;;1.79;100.00
10474;BME280;5284;50.446;7.904;2022-12-08T22:36:02;97521.00;;;1.77;100.00
10474;BME280;5284;50.446;7.904;2022-12-08T22:41:12;97518.59;;;1.74;100.00
10474;BME280;5284;50.446;7.904;2022-12-08T22:46:17;97517.03;;;1.71;100.00
10474;BME280;5284;50.446;7.904;2022-12-08T22:51:21;97517.03;;;1.71;100.00
10474;BME280;5284;50.446;7.904;2022-12-08T22:56:23;97506.53;;;1.71;100.00
10474;BME280;5284;50.446;7.904;2022-12-08T23:01:29;97507.47;;;1.70;100.00
10474;BME280;5284;50.446;7.904;2022-12-08T23:06:32;97501.25;;;1.71;100.00
10474;BME280;5284;50.446;7.904;2022-12-08T23:11:35;97497.88;;;1.69;100.00
10474;BME280;5284;50.446;7.904;2022-12-08T23:16:39;97498.81;;;1.68;100.00
10474;BME280;5284;50.446;7.904;2022-12-08T23:21:42;97498.19;;;1.65;100.00
10474;BME280;5284;50.446;7.904;2022-12-08T23:26:45;97493.69;;;1.67;100.00
10474;BME280;5284;50.446;7.904;2022-12-08T23:31:49;97495.56;;;1.65;100.00
10474;BME280;5284;50.446;7.904;2022-12-08T23:36:52;97490.72;;;1.59;100.00
10474;BME280;5284;50.446;7.904;2022-12-08T23:41:55;97488.94;;;1.59;100.00
10474;BME280;5284;50.446;7.904;2022-12-08T23:46:59;97490.72;;;1.59;100.00
10474;BME280;5284;50.446;7.904;2022-12-08T23:52:03;97484.81;;;1.55;100.00
10474;BME280;5284;50.446;7.904;2022-12-08T23:57:06;97484.63;;;1.58;100.00
